sensor_id;sensor_type;location;lat;lon;timestamp;pressure;altitude;pressure_sealevel;temperature;humidity
37852;BME280;23691;52.486;4.650;2022-10-31T00:01:26;102032.50;;;14.60;79.05
37852;BME280;23691;52.486;4.650;2022-10-31T00:03:52;102030.97;;;14.57;79.09
37852;BME280;23691;52.486;4.650;2022-10-31T00:06:20;102029.59;;;14.53;79.15
37852;BME280;23691;52.486;4.650;2022-10-31T00:08:47;102033.41;;;14.51;79.13
37852;BME280;23691;52.486;4.650;2022-10-31T00:11:13;102042.81;;;14.47;79.14
37852;BME280;23691;52.486;4.650;2022-10-31T00:13:38;102038.94;;;14.41;78.97
37852;BME280;23691;52.486;4.650;2022-10-31T00:16:04;102041.75;;;14.39;79.04
37852;BME280;23691;52.486;4.650;2022-10-31T00:18:30;102043.81;;;14.37;79.34
37852;BME280;23691;52.486;4.650;2022-10-31T00:21:02;102042.28;;;14.35;79.00
37852;BME280;23691;52.486;4.650;2022-10-31T00:23:28;102049.94;;;14.30;79.07
37852;BME280;23691;52.486;4.650;2022-10-31T00:25:54;102049.44;;;14.26;79.16
37852;BME280;23691;52.486;4.650;2022-10-31T00:28:19;102042.50;;;14.15;79.22
37852;BME280;23691;52.486;4.650;2022-10-31T00:30:45;102044.50;;;14.13;79.32
37852;BME280;23691;52.486;4.650;2022-10-31T00:33:10;102046.81;;;14.08;79.17
37852;BME280;23691;52.486;4.650;2022-10-31T00:35:35;102049.81;;;14.05;79.49
37852;BME280;23691;52.486;4.650;2022-10-31T00:38:01;102041.06;;;14.03;79.29
37852;BME280;23691;52.486;4.650;2022-10-31T00:40:26;102043.59;;;14.05;79.19
37852;BME280;23691;52.486;4.650;2022-10-31T00:42:55;102038.38;;;14.03;79.18
37852;BME280;23691;52.486;4.650;2022-10-31T00:45:20;102042.38;;;13.99;79.11
37852;BME280;23691;52.486;4.650;2022-10-31T00:47:45;102044.69;;;13.94;79.08
37852;BME280;23691;52.486;4.650;2022-10-31T00:50:11;102043.69;;;13.95;79.10
37852;BME280;23691;52.486;4.650;2022-10-31T00:52:39;102052.44;;;13.97;79.22
37852;BME280;23691;52.486;4.650;2022-10-31T00:55:04;102055.31;;;13.95;78.98
37852;BME280;23691;52.486;4.650;2022-10-31T00:57:32;102052.22;;;13.90;79.05
37852;BME280;23691;52.486;4.650;2022-10-31T00:59:58;102057.59;;;13.90;78.88
37852;BME280;23691;52.486;4.650;2022-10-31T01:02:23;102064.13;;;13.88;78.73
37852;BME280;23691;52.486;4.650;2022-10-31T01:04:49;102062.47;;;13.87;78.85
37852;BME280;23691;52.486;4.650;2022-10-31T01:07:14;102068.88;;;13.86;78.97
37852;BME280;23691;52.486;4.650;2022-10-31T01:09:40;102058.09;;;13.86;78.85
37852;BME280;23691;52.486;4.650;2022-10-31T01:12:05;102066.00;;;13.87;79.07
37852;BME280;23691;52.486;4.650;2022-10-31T01:14:31;102058.94;;;13.86;78.97
37852;BME280;23691;52.486;4.650;2022-10-31T01:16:56;102045.97;;;13.82;79.18
37852;BME280;23691;52.486;4.650;2022-10-31T01:19:22;102048.09;;;13.78;79.34
37852;BME280;23691;52.486;4.650;2022-10-31T01:21:47;102045.41;;;13.78;79.62
37852;BME280;23691;52.486;4.650;2022-10-31T01:24:12;102046.75;;;13.74;79.67
37852;BME280;23691;52.486;4.650;2022-10-31T01:26:38;102045.03;;;13.73;79.59
37852;BME280;23691;52.486;4.650;2022-10-31T01:29:07;102050.91;;;13.68;79.66
37852;BME280;23691;52.486;4.650;2022-10-31T01:31:36;102047.34;;;13.68;79.47
37852;BME280;23691;52.486;4.650;2022-10-31T01:34:02;102044.84;;;13.66;79.58
37852;BME280;23691;52.486;4.650;2022-10-31T01:36:31;102050.03;;;13.68;79.47
37852;BME280;23691;52.486;4.650;2022-10-31T01:38:59;102042.97;;;13.67;79.13
37852;BME280;23691;52.486;4.650;2022-10-31T01:41:29;102039.59;;;13.65;79.12
37852;BME280;23691;52.486;4.650;2022-10-31T01:43:57;102044.13;;;13.64;78.98
37852;BME280;23691;52.486;4.650;2022-10-31T01:46:33;102038.91;;;13.63;79.12
37852;BME280;23691;52.486;4.650;2022-10-31T01:49:04;102042.75;;;13.60;79.19
37852;BME280;23691;52.486;4.650;2022-10-31T01:51:34;102037.69;;;13.57;79.29
37852;BME280;23691;52.486;4.650;2022-10-31T01:54:04;102036.16;;;13.55;79.18
37852;BME280;23691;52.486;4.650;2022-10-31T01:56:34;102040.69;;;13.54;79.16
37852;BME280;23691;52.486;4.650;2022-10-31T01:59:04;102045.19;;;13.53;79.23
37852;BME280;23691;52.486;4.650;2022-10-31T02:01:31;102040.84;;;13.52;79.12
37852;BME280;23691;52.486;4.650;2022-10-31T02:03:56;102037.91;;;13.46;79.22
37852;BME280;23691;52.486;4.650;2022-10-31T02:08:59;102039.38;;;13.40;79.46
37852;BME280;23691;52.486;4.650;2022-10-31T02:11:27;102043.75;;;13.41;79.34
37852;BME280;23691;52.486;4.650;2022-10-31T02:13:54;102043.59;;;13.43;79.39
37852;BME280;23691;52.486;4.650;2022-10-31T02:16:19;102043.47;;;13.44;79.41
37852;BME280;23691;52.486;4.650;2022-10-31T02:18:45;102045.31;;;13.44;79.19
37852;BME280;23691;52.486;4.650;2022-10-31T02:21:33;102043.91;;;13.40;79.27
37852;BME280;23691;52.486;4.650;2022-10-31T02:30:15;102028.38;;;13.34;79.10
37852;BME280;23691;52.486;4.650;2022-10-31T02:33:04;102038.63;;;13.30;79.24
37852;BME280;23691;52.486;4.650;2022-10-31T02:38:27;102041.31;;;13.30;79.44
37852;BME280;23691;52.486;4.650;2022-10-31T02:41:04;102041.22;;;13.22;79.67
37852;BME280;23691;52.486;4.650;2022-10-31T02:43:50;102034.69;;;13.24;79.67
37852;BME280;23691;52.486;4.650;2022-10-31T02:46:27;102040.06;;;13.24;79.40
37852;BME280;23691;52.486;4.650;2022-10-31T02:49:01;102037.81;;;13.20;79.47
37852;BME280;23691;52.486;4.650;2022-10-31T02:51:29;102041.66;;;13.17;79.51
37852;BME280;23691;52.486;4.650;2022-10-31T02:54:01;102035.72;;;13.14;79.35
37852;BME280;23691;52.486;4.650;2022-10-31T02:56:29;102044.94;;;13.11;79.30
37852;BME280;23691;52.486;4.650;2022-10-31T02:59:01;102046.09;;;13.08;79.36
37852;BME280;23691;52.486;4.650;2022-10-31T03:06:33;102050.28;;;12.93;79.25
37852;BME280;23691;52.486;4.650;2022-10-31T03:09:12;102054.00;;;12.92;79.04
37852;BME280;23691;52.486;4.650;2022-10-31T03:12:01;102052.13;;;12.93;79.11
37852;BME280;23691;52.486;4.650;2022-10-31T03:17:21;102034.75;;;12.87;79.09
37852;BME280;23691;52.486;4.650;2022-10-31T03:19:53;102036.59;;;12.86;79.12
37852;BME280;23691;52.486;4.650;2022-10-31T03:22:24;102026.88;;;12.85;79.20
37852;BME280;23691;52.486;4.650;2022-10-31T03:24:52;102032.38;;;12.84;79.19
37852;BME280;23691;52.486;4.650;2022-10-31T03:27:24;102034.38;;;12.82;79.15
37852;BME280;23691;52.486;4.650;2022-10-31T03:29:55;102034.53;;;12.80;79.15
37852;BME280;23691;52.486;4.650;2022-10-31T03:32:31;102032.84;;;12.79;79.23
37852;BME280;23691;52.486;4.650;2022-10-31T03:35:00;102033.13;;;12.76;79.24
37852;BME280;23691;52.486;4.650;2022-10-31T03:37:27;102039.66;;;12.74;79.19
37852;BME280;23691;52.486;4.650;2022-10-31T03:39:55;102033.88;;;12.68;79.15
37852;BME280;23691;52.486;4.650;2022-10-31T03:42:25;102039.69;;;12.64;79.15
37852;BME280;23691;52.486;4.650;2022-10-31T03:47:36;102038.47;;;12.58;79.00
37852;BME280;23691;52.486;4.650;2022-10-31T03:50:03;102041.16;;;12.58;79.14
37852;BME280;23691;52.486;4.650;2022-10-31T03:52:48;102033.25;;;12.57;79.18
37852;BME280;23691;52.486;4.650;2022-10-31T03:55:29;102043.00;;;12.58;79.15
37852;BME280;23691;52.486;4.650;2022-10-31T03:58:03;102038.91;;;12.54;79.20
37852;BME280;23691;52.486;4.650;2022-10-31T04:00:32;102048.94;;;12.52;79.03
37852;BME280;23691;52.486;4.650;2022-10-31T04:03:05;102047.25;;;12.51;79.34
37852;BME280;23691;52.486;4.650;2022-10-31T04:05:33;102042.75;;;12.51;79.35
37852;BME280;23691;52.486;4.650;2022-10-31T04:08:03;102035.53;;;12.52;79.27
37852;BME280;23691;52.486;4.650;2022-10-31T04:10:31;102040.88;;;12.52;79.22
37852;BME280;23691;52.486;4.650;2022-10-31T04:13:00;102055.31;;;12.51;79.24
37852;BME280;23691;52.486;4.650;2022-10-31T04:15:27;102043.03;;;12.48;79.23
37852;BME280;23691;52.486;4.650;2022-10-31T04:17:56;102049.25;;;12.49;79.15
37852;BME280;23691;52.486;4.650;2022-10-31T04:20:35;102045.03;;;12.46;79.32
37852;BME280;23691;52.486;4.650;2022-10-31T04:23:02;102044.44;;;12.42;79.40
37852;BME280;23691;52.486;4.650;2022-10-31T04:25:28;102041.09;;;12.40;79.55
37852;BME280;23691;52.486;4.650;2022-10-31T04:27:54;102048.28;;;12.40;79.36
37852;BME280;23691;52.486;4.650;2022-10-31T04:30:19;102044.22;;;12.36;79.41
37852;BME280;23691;52.486;4.650;2022-10-31T04:32:45;102044.34;;;12.34;79.42
37852;BME280;23691;52.486;4.650;2022-10-31T04:35:14;102047.03;;;12.34;79.39
37852;BME280;23691;52.486;4.650;2022-10-31T04:37:43;102040.97;;;12.32;79.56
37852;BME280;23691;52.486;4.650;2022-10-31T04:40:08;102050.03;;;12.31;79.29
37852;BME280;23691;52.486;4.650;2022-10-31T04:42:34;102050.16;;;12.30;79.26
37852;BME280;23691;52.486;4.650;2022-10-31T04:44:59;102054.81;;;12.28;79.43
37852;BME280;23691;52.486;4.650;2022-10-31T04:47:25;102048.63;;;12.27;79.56
37852;BME280;23691;52.486;4.650;2022-10-31T04:49:50;102043.09;;;12.29;79.35
37852;BME280;23691;52.486;4.650;2022-10-31T04:52:16;102042.28;;;12.28;79.39
37852;BME280;23691;52.486;4.650;2022-10-31T04:54:42;102040.56;;;12.27;79.43
37852;BME280;23691;52.486;4.650;2022-10-31T04:57:08;102046.75;;;12.28;79.57
37852;BME280;23691;52.486;4.650;2022-10-31T04:59:33;102040.69;;;12.25;79.67
37852;BME280;23691;52.486;4.650;2022-10-31T05:01:58;102037.03;;;12.27;79.63
37852;BME280;23691;52.486;4.650;2022-10-31T05:04:24;102033.34;;;12.28;79.97
37852;BME280;23691;52.486;4.650;2022-10-31T05:06:49;102042.09;;;12.30;79.79
37852;BME280;23691;52.486;4.650;2022-10-31T05:09:15;102037.75;;;12.29;79.68
37852;BME280;23691;52.486;4.650;2022-10-31T05:11:41;102022.63;;;12.28;79.72
37852;BME280;23691;52.486;4.650;2022-10-31T05:14:06;102026.16;;;12.28;79.78
37852;BME280;23691;52.486;4.650;2022-10-31T05:16:31;102030.66;;;12.28;80.10
37852;BME280;23691;52.486;4.650;2022-10-31T05:18:57;102024.75;;;12.24;80.39
37852;BME280;23691;52.486;4.650;2022-10-31T05:21:22;102024.75;;;12.24;80.16
37852;BME280;23691;52.486;4.650;2022-10-31T05:23:49;102015.72;;;12.25;80.21
37852;BME280;23691;52.486;4.650;2022-10-31T05:26:14;102020.22;;;12.24;80.30
37852;BME280;23691;52.486;4.650;2022-10-31T05:28:39;102017.56;;;12.24;80.43
37852;BME280;23691;52.486;4.650;2022-10-31T05:31:05;102020.38;;;12.23;80.36
37852;BME280;23691;52.486;4.650;2022-10-31T05:33:30;102017.28;;;12.18;80.33
37852;BME280;23691;52.486;4.650;2022-10-31T05:35:56;102008.69;;;12.14;80.34
37852;BME280;23691;52.486;4.650;2022-10-31T05:38:21;102014.06;;;12.14;80.49
37852;BME280;23691;52.486;4.650;2022-10-31T05:40:46;102007.00;;;12.13;80.55
37852;BME280;23691;52.486;4.650;2022-10-31T05:43:12;102009.00;;;12.11;80.53
37852;BME280;23691;52.486;4.650;2022-10-31T05:45:37;102017.31;;;12.08;80.35
37852;BME280;23691;52.486;4.650;2022-10-31T05:48:03;102010.13;;;12.09;80.57
37852;BME280;23691;52.486;4.650;2022-10-31T05:50:31;102018.44;;;12.06;80.51
37852;BME280;23691;52.486;4.650;2022-10-31T05:53:02;102012.13;;;12.07;80.33
37852;BME280;23691;52.486;4.650;2022-10-31T05:55:29;102013.97;;;12.06;80.42
37852;BME280;23691;52.486;4.650;2022-10-31T05:57:56;102008.59;;;12.06;80.43
37852;BME280;23691;52.486;4.650;2022-10-31T06:00:23;102002.78;;;12.01;80.68
37852;BME280;23691;52.486;4.650;2022-10-31T06:02:49;102000.81;;;12.03;80.62
37852;BME280;23691;52.486;4.650;2022-10-31T06:05:15;102005.34;;;12.02;80.73
37852;BME280;23691;52.486;4.650;2022-10-31T06:07:41;101999.00;;;12.03;80.58
37852;BME280;23691;52.486;4.650;2022-10-31T06:10:08;101994.06;;;11.99;80.46
37852;BME280;23691;52.486;4.650;2022-10-31T06:12:35;102004.09;;;11.97;80.64
37852;BME280;23691;52.486;4.650;2022-10-31T06:15:07;102005.06;;;11.96;80.68
37852;BME280;23691;52.486;4.650;2022-10-31T06:17:36;102007.63;;;11.97;80.75
37852;BME280;23691;52.486;4.650;2022-10-31T06:20:03;102006.59;;;11.98;80.62
37852;BME280;23691;52.486;4.650;2022-10-31T06:22:29;102005.06;;;11.96;80.59
37852;BME280;23691;52.486;4.650;2022-10-31T06:24:54;102005.22;;;11.94;80.85
37852;BME280;23691;52.486;4.650;2022-10-31T06:27:20;102004.38;;;11.94;80.93
37852;BME280;23691;52.486;4.650;2022-10-31T06:29:45;102006.38;;;11.92;80.90
37852;BME280;23691;52.486;4.650;2022-10-31T06:32:11;102006.38;;;11.92;80.97
37852;BME280;23691;52.486;4.650;2022-10-31T06:34:38;102014.25;;;11.93;81.18
37852;BME280;23691;52.486;4.650;2022-10-31T06:37:05;102018.78;;;11.93;80.96
37852;BME280;23691;52.486;4.650;2022-10-31T06:39:31;102010.03;;;11.91;81.07
37852;BME280;23691;52.486;4.650;2022-10-31T06:41:57;102015.69;;;11.88;81.59
37852;BME280;23691;52.486;4.650;2022-10-31T06:44:22;102016.94;;;11.93;81.57
37852;BME280;23691;52.486;4.650;2022-10-31T06:46:48;102020.88;;;11.99;81.79
37852;BME280;23691;52.486;4.650;2022-10-31T06:49:13;102016.19;;;12.01;81.59
37852;BME280;23691;52.486;4.650;2022-10-31T06:51:39;102013.53;;;12.01;81.71
37852;BME280;23691;52.486;4.650;2022-10-31T06:54:04;102015.09;;;12.03;82.16
37852;BME280;23691;52.486;4.650;2022-10-31T06:56:30;102013.78;;;12.08;81.83
37852;BME280;23691;52.486;4.650;2022-10-31T06:58:55;102012.34;;;12.13;81.79
37852;BME280;23691;52.486;4.650;2022-10-31T07:01:20;102018.28;;;12.17;81.85
37852;BME280;23691;52.486;4.650;2022-10-31T07:03:47;102012.63;;;12.20;81.80
37852;BME280;23691;52.486;4.650;2022-10-31T07:06:12;102015.00;;;12.23;81.63
37852;BME280;23691;52.486;4.650;2022-10-31T07:08:38;102024.75;;;12.24;81.71
37852;BME280;23691;52.486;4.650;2022-10-31T07:11:03;102029.00;;;12.27;81.79
37852;BME280;23691;52.486;4.650;2022-10-31T07:13:29;102024.16;;;12.30;81.77
37852;BME280;23691;52.486;4.650;2022-10-31T07:15:59;102023.03;;;12.33;81.95
37852;BME280;23691;52.486;4.650;2022-10-31T07:18:28;102025.44;;;12.36;81.66
37852;BME280;23691;52.486;4.650;2022-10-31T07:20:54;102030.38;;;12.40;81.90
37852;BME280;23691;52.486;4.650;2022-10-31T07:23:19;102031.91;;;12.43;81.83
37852;BME280;23691;52.486;4.650;2022-10-31T07:25:44;102036.13;;;12.45;82.13
37852;BME280;23691;52.486;4.650;2022-10-31T07:28:10;102031.16;;;12.51;82.28
37852;BME280;23691;52.486;4.650;2022-10-31T07:30:37;102035.22;;;12.55;82.39
37852;BME280;23691;52.486;4.650;2022-10-31T07:33:03;102045.50;;;12.59;82.29
37852;BME280;23691;52.486;4.650;2022-10-31T07:35:29;102046.09;;;12.63;82.33
37852;BME280;23691;52.486;4.650;2022-10-31T07:37:55;102040.28;;;12.67;82.30
37852;BME280;23691;52.486;4.650;2022-10-31T07:40:22;102042.19;;;12.75;82.31
37852;BME280;23691;52.486;4.650;2022-10-31T07:42:49;102044.28;;;12.81;82.08
37852;BME280;23691;52.486;4.650;2022-10-31T07:45:17;102040.00;;;12.88;82.33
37852;BME280;23691;52.486;4.650;2022-10-31T07:47:48;102044.59;;;12.96;82.14
37852;BME280;23691;52.486;4.650;2022-10-31T07:50:16;102043.16;;;13.02;81.38
37852;BME280;23691;52.486;4.650;2022-10-31T07:52:43;102039.19;;;13.06;82.19
37852;BME280;23691;52.486;4.650;2022-10-31T07:55:09;102035.03;;;13.11;82.31
37852;BME280;23691;52.486;4.650;2022-10-31T07:57:34;102043.03;;;13.21;82.31
37852;BME280;23691;52.486;4.650;2022-10-31T08:00:03;102040.28;;;13.31;82.29
37852;BME280;23691;52.486;4.650;2022-10-31T08:02:29;102037.53;;;13.41;81.95
37852;BME280;23691;52.486;4.650;2022-10-31T08:04:54;102038.78;;;13.46;82.06
37852;BME280;23691;52.486;4.650;2022-10-31T08:07:20;102038.59;;;13.48;82.16
37852;BME280;23691;52.486;4.650;2022-10-31T08:09:45;102032.91;;;13.51;82.49
37852;BME280;23691;52.486;4.650;2022-10-31T08:12:11;102038.69;;;13.56;82.53
37852;BME280;23691;52.486;4.650;2022-10-31T08:14:36;102033.69;;;13.61;82.14
37852;BME280;23691;52.486;4.650;2022-10-31T08:17:02;102042.50;;;13.71;82.12
37852;BME280;23691;52.486;4.650;2022-10-31T08:19:27;102026.91;;;13.75;82.11
37852;BME280;23691;52.486;4.650;2022-10-31T08:21:53;102032.13;;;13.77;82.01
37852;BME280;23691;52.486;4.650;2022-10-31T08:24:21;102033.66;;;13.79;82.29
37852;BME280;23691;52.486;4.650;2022-10-31T08:26:46;102031.19;;;13.86;81.97
37852;BME280;23691;52.486;4.650;2022-10-31T08:29:12;102034.41;;;13.89;82.06
37852;BME280;23691;52.486;4.650;2022-10-31T08:31:37;102031.56;;;13.91;82.09
37852;BME280;23691;52.486;4.650;2022-10-31T08:34:03;102023.31;;;13.92;82.09
37852;BME280;23691;52.486;4.650;2022-10-31T08:36:28;102033.09;;;13.93;82.42
37852;BME280;23691;52.486;4.650;2022-10-31T08:38:54;102030.22;;;13.95;81.90
37852;BME280;23691;52.486;4.650;2022-10-31T08:41:20;102029.94;;;13.98;82.08
37852;BME280;23691;52.486;4.650;2022-10-31T08:43:45;102029.28;;;14.04;81.86
37852;BME280;23691;52.486;4.650;2022-10-31T08:46:11;102024.47;;;14.08;81.81
37852;BME280;23691;52.486;4.650;2022-10-31T08:48:36;102021.59;;;14.09;81.50
37852;BME280;23691;52.486;4.650;2022-10-31T08:51:02;102021.75;;;14.08;81.63
37852;BME280;23691;52.486;4.650;2022-10-31T08:53:27;102018.75;;;14.11;81.74
37852;BME280;23691;52.486;4.650;2022-10-31T08:55:55;102011.72;;;14.18;81.73
37852;BME280;23691;52.486;4.650;2022-10-31T08:58:21;102011.25;;;14.23;81.50
37852;BME280;23691;52.486;4.650;2022-10-31T09:00:49;102003.84;;;14.25;81.50
37852;BME280;23691;52.486;4.650;2022-10-31T09:03:26;102003.91;;;14.33;81.62
37852;BME280;23691;52.486;4.650;2022-10-31T09:05:55;102004.25;;;14.38;81.69
37852;BME280;23691;52.486;4.650;2022-10-31T09:08:21;102002.59;;;14.45;81.56
37852;BME280;23691;52.486;4.650;2022-10-31T09:10:46;102008.34;;;14.50;81.29
37852;BME280;23691;52.486;4.650;2022-10-31T09:13:14;102000.31;;;14.58;81.33
37852;BME280;23691;52.486;4.650;2022-10-31T09:15:41;102001.34;;;14.66;81.49
37852;BME280;23691;52.486;4.650;2022-10-31T09:18:08;102006.75;;;14.74;81.07
37852;BME280;23691;52.486;4.650;2022-10-31T09:20:35;101998.03;;;14.80;81.17
37852;BME280;23691;52.486;4.650;2022-10-31T09:23:18;101998.19;;;14.78;81.05
37852;BME280;23691;52.486;4.650;2022-10-31T09:25:46;101997.34;;;14.78;81.41
37852;BME280;23691;52.486;4.650;2022-10-31T09:28:13;101994.50;;;14.79;81.36
37852;BME280;23691;52.486;4.650;2022-10-31T09:30:39;101994.66;;;14.78;81.35
37852;BME280;23691;52.486;4.650;2022-10-31T09:33:09;101992.31;;;14.75;81.35
37852;BME280;23691;52.486;4.650;2022-10-31T09:35:34;101984.22;;;14.75;81.49
37852;BME280;23691;52.486;4.650;2022-10-31T09:38:05;101989.13;;;14.79;81.36
37852;BME280;23691;52.486;4.650;2022-10-31T09:43:12;101992.47;;;14.81;81.22
37852;BME280;23691;52.486;4.650;2022-10-31T09:46:01;101985.25;;;14.82;81.33
37852;BME280;23691;52.486;4.650;2022-10-31T09:51:20;101982.22;;;14.77;81.26
37852;BME280;23691;52.486;4.650;2022-10-31T09:53:53;101971.44;;;14.77;81.47
37852;BME280;23691;52.486;4.650;2022-10-31T09:56:21;101959.63;;;14.78;81.19
37852;BME280;23691;52.486;4.650;2022-10-31T09:58:55;101973.59;;;14.81;80.95
37852;BME280;23691;52.486;4.650;2022-10-31T10:06:54;101951.09;;;14.99;80.77
37852;BME280;23691;52.486;4.650;2022-10-31T10:09:24;101947.56;;;15.07;80.75
37852;BME280;23691;52.486;4.650;2022-10-31T10:12:03;101950.59;;;15.20;80.34
37852;BME280;23691;52.486;4.650;2022-10-31T10:15:00;101939.66;;;15.30;80.64
37852;BME280;23691;52.486;4.650;2022-10-31T10:17:57;101941.16;;;15.40;80.69
37852;BME280;23691;52.486;4.650;2022-10-31T10:20:29;101943.34;;;15.45;80.57
37852;BME280;23691;52.486;4.650;2022-10-31T10:25:46;101940.13;;;15.58;80.12
37852;BME280;23691;52.486;4.650;2022-10-31T10:28:26;101926.28;;;15.69;79.96
37852;BME280;23691;52.486;4.650;2022-10-31T10:31:01;101929.66;;;15.79;79.94
37852;BME280;23691;52.486;4.650;2022-10-31T10:36:21;101928.41;;;16.06;79.27
37852;BME280;23691;52.486;4.650;2022-10-31T10:39:01;101925.81;;;16.21;79.22
37852;BME280;23691;52.486;4.650;2022-10-31T10:41:31;101922.72;;;16.33;78.91
37852;BME280;23691;52.486;4.650;2022-10-31T10:43:57;101916.28;;;16.42;78.99
37852;BME280;23691;52.486;4.650;2022-10-31T10:46:42;101915.56;;;16.48;78.44
37852;BME280;23691;52.486;4.650;2022-10-31T10:49:44;101917.88;;;16.51;78.19
37852;BME280;23691;52.486;4.650;2022-10-31T11:00:25;101889.06;;;16.74;77.39
37852;BME280;23691;52.486;4.650;2022-10-31T11:02:51;101887.00;;;16.77;77.45
37852;BME280;23691;52.486;4.650;2022-10-31T11:07:51;101874.84;;;16.81;76.62
37852;BME280;23691;52.486;4.650;2022-10-31T11:10:17;101867.22;;;16.84;76.45
37852;BME280;23691;52.486;4.650;2022-10-31T11:12:46;101866.31;;;16.92;76.41
37852;BME280;23691;52.486;4.650;2022-10-31T11:15:24;101854.03;;;17.04;76.09
37852;BME280;23691;52.486;4.650;2022-10-31T11:17:52;101845.78;;;17.21;75.66
37852;BME280;23691;52.486;4.650;2022-10-31T11:22:47;101828.66;;;17.58;75.24
37852;BME280;23691;52.486;4.650;2022-10-31T11:25:32;101831.06;;;17.68;74.68
37852;BME280;23691;52.486;4.650;2022-10-31T11:28:08;101829.50;;;17.88;74.47
37852;BME280;23691;52.486;4.650;2022-10-31T11:30:50;101826.75;;;18.03;74.13
37852;BME280;23691;52.486;4.650;2022-10-31T11:35:52;101823.09;;;18.11;73.30
37852;BME280;23691;52.486;4.650;2022-10-31T11:38:21;101821.22;;;18.11;73.24
37852;BME280;23691;52.486;4.650;2022-10-31T11:43:18;101818.06;;;18.08;72.59
37852;BME280;23691;52.486;4.650;2022-10-31T11:45:44;101815.09;;;18.02;72.50
37852;BME280;23691;52.486;4.650;2022-10-31T11:48:18;101820.81;;;17.93;72.26
37852;BME280;23691;52.486;4.650;2022-10-31T11:50:53;101821.09;;;17.83;71.97
37852;BME280;23691;52.486;4.650;2022-10-31T11:53:26;101808.28;;;17.77;71.80
37852;BME280;23691;52.486;4.650;2022-10-31T11:56:13;101813.25;;;17.73;71.35
37852;BME280;23691;52.486;4.650;2022-10-31T11:58:39;101805.94;;;17.74;70.46
37852;BME280;23691;52.486;4.650;2022-10-31T12:01:05;101799.97;;;17.78;69.98
37852;BME280;23691;52.486;4.650;2022-10-31T12:03:42;101791.72;;;17.80;69.93
37852;BME280;23691;52.486;4.650;2022-10-31T12:06:23;101789.97;;;17.79;69.83
37852;BME280;23691;52.486;4.650;2022-10-31T12:08:49;101776.44;;;17.79;69.69
37852;BME280;23691;52.486;4.650;2022-10-31T12:16:32;101767.88;;;17.90;69.47
37852;BME280;23691;52.486;4.650;2022-10-31T12:30:06;101744.31;;;18.06;69.59
37852;BME280;23691;52.486;4.650;2022-10-31T12:35:45;101742.00;;;18.02;69.66
37852;BME280;23691;52.486;4.650;2022-10-31T12:41:56;101738.09;;;17.90;69.93
37852;BME280;23691;52.486;4.650;2022-10-31T12:47:17;101717.19;;;17.84;70.57
37852;BME280;23691;52.486;4.650;2022-10-31T12:55:38;101701.06;;;17.76;71.14
37852;BME280;23691;52.486;4.650;2022-10-31T12:58:27;101691.63;;;17.72;71.40
37852;BME280;23691;52.486;4.650;2022-10-31T13:04:15;101684.72;;;17.69;71.53
37852;BME280;23691;52.486;4.650;2022-10-31T13:06:48;101667.22;;;17.65;71.75
37852;BME280;23691;52.486;4.650;2022-10-31T13:09:18;101667.59;;;17.62;72.23
37852;BME280;23691;52.486;4.650;2022-10-31T13:11:49;101665.75;;;17.63;72.25
37852;BME280;23691;52.486;4.650;2022-10-31T13:14:48;101662.16;;;17.62;72.47
37852;BME280;23691;52.486;4.650;2022-10-31T13:17:37;101653.03;;;17.63;72.34
37852;BME280;23691;52.486;4.650;2022-10-31T13:22:50;101638.28;;;17.66;72.74
37852;BME280;23691;52.486;4.650;2022-10-31T13:25:23;101632.47;;;17.69;72.65
37852;BME280;23691;52.486;4.650;2022-10-31T13:27:59;101620.03;;;17.74;72.96
37852;BME280;23691;52.486;4.650;2022-10-31T13:30:28;101621.63;;;17.84;72.79
37852;BME280;23691;52.486;4.650;2022-10-31T13:33:21;101607.59;;;17.95;72.50
37852;BME280;23691;52.486;4.650;2022-10-31T13:38:38;101605.47;;;18.18;72.59
37852;BME280;23691;52.486;4.650;2022-10-31T13:44:28;101589.94;;;18.27;72.43
37852;BME280;23691;52.486;4.650;2022-10-31T13:46:49;101578.44;;;18.25;72.71
37852;BME280;23691;52.486;4.650;2022-10-31T13:52:13;101580.50;;;18.23;72.72
37852;BME280;23691;52.486;4.650;2022-10-31T13:54:41;101573.44;;;18.22;72.45
37852;BME280;23691;52.486;4.650;2022-10-31T13:57:35;101570.72;;;18.22;72.64
37852;BME280;23691;52.486;4.650;2022-10-31T14:00:07;101560.72;;;18.22;72.53
37852;BME280;23691;52.486;4.650;2022-10-31T14:02:50;101565.09;;;18.23;72.85
37852;BME280;23691;52.486;4.650;2022-10-31T14:05:26;101564.09;;;18.24;72.47
37852;BME280;23691;52.486;4.650;2022-10-31T14:07:53;101561.16;;;18.26;72.66
37852;BME280;23691;52.486;4.650;2022-10-31T14:10:31;101559.94;;;18.29;72.77
37852;BME280;23691;52.486;4.650;2022-10-31T14:13:15;101557.84;;;18.31;72.54
37852;BME280;23691;52.486;4.650;2022-10-31T14:15:55;101544.97;;;18.33;72.69
37852;BME280;23691;52.486;4.650;2022-10-31T14:18:23;101544.97;;;18.33;72.63
37852;BME280;23691;52.486;4.650;2022-10-31T14:20:50;101536.00;;;18.32;72.70
37852;BME280;23691;52.486;4.650;2022-10-31T14:25:53;101535.75;;;18.27;72.78
37852;BME280;23691;52.486;4.650;2022-10-31T14:28:22;101528.22;;;18.22;73.13
37852;BME280;23691;52.486;4.650;2022-10-31T14:30:57;101526.31;;;18.16;73.25
37852;BME280;23691;52.486;4.650;2022-10-31T14:33:26;101511.69;;;18.11;73.31
37852;BME280;23691;52.486;4.650;2022-10-31T14:36:11;101514.97;;;18.06;73.68
37852;BME280;23691;52.486;4.650;2022-10-31T14:47:02;101494.13;;;17.78;74.27
37852;BME280;23691;52.486;4.650;2022-10-31T14:50:04;101482.88;;;17.75;74.10
37852;BME280;23691;52.486;4.650;2022-10-31T14:52:36;101478.47;;;17.67;74.41
37852;BME280;23691;52.486;4.650;2022-10-31T14:55:02;101470.47;;;17.59;74.50
37852;BME280;23691;52.486;4.650;2022-10-31T14:57:34;101468.09;;;17.49;74.88